createdAt,value
2018-09-17T00:00:10.180Z,19.24
2018-09-17T00:01:20.049Z,19.23
2018-09-17T00:02:30.144Z,19.17
2018-09-17T00:03:40.234Z,19.19
2018-09-17T00:04:50.312Z,19.12
2018-09-17T00:06:00.390Z,19.19
2018-09-17T00:07:10.480Z,19.05
2018-09-17T00:08:20.545Z,19.19
2018-09-17T00:09:30.356Z,19.09
2018-09-17T00:10:40.437Z,19.12
2018-09-17T00:11:50.557Z,19.16
2018-09-17T00:13:00.642Z,19.09
2018-09-17T00:14:10.804Z,19.07
2018-09-17T00:15:20.873Z,18.99
2018-09-17T00:16:30.940Z,18.97
2018-09-17T00:17:41.032Z,18.96
2018-09-17T00:18:51.116Z,18.96
2018-09-17T00:20:01.185Z,18.99
2018-09-17T00:21:11.256Z,18.91
2018-09-17T00:22:21.066Z,18.97
2018-09-17T00:23:31.193Z,18.97
2018-09-17T00:24:41.280Z,18.96
2018-09-17T00:25:51.348Z,18.99
2018-09-17T00:27:01.439Z,19.06
2018-09-17T00:28:11.520Z,18.94
2018-09-17T00:29:21.647Z,18.99
2018-09-17T00:30:31.791Z,18.89
2018-09-17T00:31:41.852Z,18.96
2018-09-17T00:32:51.672Z,18.89
2018-09-17T00:34:01.725Z,18.96
2018-09-17T00:35:12.056Z,18.91
2018-09-17T00:36:22.131Z,18.86
2018-09-17T00:37:32.221Z,18.91
2018-09-17T00:38:42.046Z,18.9
2018-09-17T00:39:51.851Z,18.82
2018-09-17T00:41:01.653Z,18.84
2018-09-17T00:42:11.481Z,18.89
2018-09-17T00:43:21.555Z,18.78
2018-09-17T00:44:31.413Z,18.75
2018-09-17T00:45:41.494Z,18.76
2018-09-17T00:46:51.565Z,18.69
2018-09-17T00:48:02.467Z,18.74
2018-09-17T00:49:12.688Z,18.71
2018-09-17T00:50:22.542Z,18.71
2018-09-17T00:51:32.607Z,18.71
2018-09-17T00:52:42.732Z,18.76
2018-09-17T00:53:52.847Z,18.71
2018-09-17T00:55:02.916Z,18.65
2018-09-17T00:56:12.986Z,18.59
2018-09-17T00:57:22.838Z,18.63
2018-09-17T00:58:33.022Z,18.53
2018-09-17T00:59:43.113Z,18.54
2018-09-17T01:00:53.197Z,18.45
2018-09-17T01:02:02.760Z,18.53
2018-09-17T01:03:12.845Z,18.54
2018-09-17T01:04:23.054Z,18.53
2018-09-17T01:05:32.955Z,18.5
2018-09-17T01:06:43.036Z,18.49
2018-09-17T01:07:53.149Z,18.41
2018-09-17T01:09:05.685Z,18.47
2018-09-17T01:10:15.641Z,18.39
2018-09-17T01:11:25.712Z,18.41
2018-09-17T01:12:35.790Z,18.39
2018-09-17T01:13:45.854Z,18.31
2018-09-17T01:14:55.918Z,18.38
2018-09-17T01:16:07.352Z,18.31
2018-09-17T01:17:17.630Z,18.27
2018-09-17T01:18:27.716Z,18.34
2018-09-17T01:19:37.801Z,18.36
2018-09-17T01:20:47.879Z,18.32
2018-09-17T01:21:58.007Z,18.2
2018-09-17T01:23:08.064Z,18.32
2018-09-17T01:24:18.128Z,18.32
2018-09-17T01:25:28.541Z,18.31
2018-09-17T01:26:38.660Z,18.24
2018-09-17T01:27:48.741Z,18.36
2018-09-17T01:28:58.801Z,18.35
2018-09-17T01:30:08.881Z,18.31
2018-09-17T01:31:18.709Z,18.29
2018-09-17T01:32:28.790Z,18.34
2018-09-17T01:33:38.918Z,18.36
2018-09-17T01:34:49.000Z,18.44
2018-09-17T01:35:59.104Z,18.42
2018-09-17T01:37:09.169Z,18.38
2018-09-17T01:38:19.282Z,18.34
2018-09-17T01:39:29.082Z,18.27
2018-09-17T01:40:39.164Z,18.34
2018-09-17T01:41:49.247Z,18.31
2018-09-17T01:42:59.304Z,18.36
2018-09-17T01:44:10.678Z,18.34
2018-09-17T01:45:21.888Z,18.26
2018-09-17T01:46:31.948Z,18.34
2018-09-17T01:47:42.041Z,18.31
2018-09-17T01:48:51.907Z,18.2
2018-09-17T01:50:03.395Z,18.19
2018-09-17T01:51:13.507Z,18.16
2018-09-17T01:52:23.582Z,18.16
2018-09-17T01:53:33.648Z,18.23
2018-09-17T01:54:43.452Z,18.26
2018-09-17T01:55:53.287Z,18.35
2018-09-17T01:57:02.872Z,18.32
2018-09-17T01:58:12.699Z,18.29
2018-09-17T01:59:22.507Z,18.35
2018-09-17T02:00:32.627Z,18.32
2018-09-17T02:01:42.704Z,18.47
2018-09-17T02:02:52.938Z,18.44
2018-09-17T02:04:02.753Z,18.41
2018-09-17T02:05:12.815Z,18.41
2018-09-17T02:06:22.937Z,18.39
2018-09-17T02:07:32.755Z,18.42
2018-09-17T02:08:43.057Z,18.36
2018-09-17T02:09:52.977Z,18.36
2018-09-17T02:11:03.626Z,18.41
2018-09-17T02:12:13.436Z,18.35
2018-09-17T02:13:23.539Z,18.39
2018-09-17T02:14:33.689Z,18.35
2018-09-17T02:15:43.779Z,18.29
2018-09-17T02:16:53.904Z,18.29
2018-09-17T02:18:04.674Z,18.29
2018-09-17T02:19:14.760Z,18.31
2018-09-17T02:20:24.633Z,18.35
2018-09-17T02:21:34.704Z,18.31
2018-09-17T02:22:44.261Z,18.36
2018-09-17T02:23:54.334Z,18.16
2018-09-17T02:25:04.406Z,18.2
2018-09-17T02:26:14.630Z,18.19
2018-09-17T02:27:24.684Z,18.2
2018-09-17T02:28:34.762Z,18.19
2018-09-17T02:29:44.834Z,18.14
2018-09-17T02:30:54.889Z,18.17
2018-09-17T02:32:04.495Z,18.13
2018-09-17T02:33:14.572Z,18.11
2018-09-17T02:34:24.646Z,18.16
2018-09-17T02:35:34.727Z,18.16
2018-09-17T02:36:44.839Z,18.23
2018-09-17T02:37:54.954Z,18.16
2018-09-17T02:39:05.250Z,18.2
2018-09-17T02:40:15.059Z,18.16
2018-09-17T02:41:25.200Z,18.16
2018-09-17T02:42:35.296Z,18.17
2018-09-17T02:43:45.374Z,18.14
2018-09-17T02:44:55.192Z,18.17
2018-09-17T02:46:06.906Z,18.23
2018-09-17T02:47:16.713Z,18.14
2018-09-17T02:48:26.548Z,18.19
2018-09-17T02:49:36.672Z,18.24
2018-09-17T02:50:46.739Z,18.17
2018-09-17T02:51:56.819Z,18.17
2018-09-17T02:53:06.898Z,18.16
2018-09-17T02:54:17.028Z,18.16
2018-09-17T02:55:27.102Z,18.14
2018-09-17T02:56:37.197Z,18.16
2018-09-17T02:57:47.010Z,18.19
2018-09-17T02:58:57.091Z,18.14
2018-09-17T03:00:09.622Z,18.11
2018-09-17T03:01:19.767Z,18.06
2018-09-17T03:02:29.847Z,18.06
2018-09-17T03:34:59.053Z,15.51
2018-09-17T03:36:09.135Z,15.45
2018-09-17T03:37:19.214Z,15.45
2018-09-17T03:38:29.294Z,15.44
2018-09-17T03:39:39.376Z,15.53
2018-09-17T03:40:49.479Z,15.44
2018-09-17T03:41:59.545Z,15.55
2018-09-17T03:43:09.618Z,15.55
2018-09-17T03:44:19.427Z,15.68
2018-09-17T03:45:29.500Z,15.75
2018-09-17T03:46:39.754Z,15.89
2018-09-17T03:47:50.460Z,15.99
2018-09-17T03:49:01.181Z,15.96
2018-09-17T03:50:11.270Z,16.18
2018-09-17T03:51:21.104Z,16.26
2018-09-17T03:52:31.175Z,16.33
2018-09-17T03:53:41.244Z,16.36
2018-09-17T03:54:51.330Z,16.45
2018-09-17T03:56:03.062Z,16.47
2018-09-17T03:57:13.132Z,16.59
2018-09-17T03:58:23.193Z,16.69
2018-09-17T03:59:33.012Z,16.81
2018-09-17T04:00:43.211Z,16.82
2018-09-17T04:01:53.278Z,16.88
2018-09-17T04:03:03.077Z,16.99
2018-09-17T04:04:13.194Z,17.03
2018-09-17T04:05:23.272Z,17.06
2018-09-17T04:06:33.342Z,17.12
2018-09-17T04:07:43.407Z,17.15
2018-09-17T04:08:53.470Z,17.15
2018-09-17T04:10:03.736Z,17.22
2018-09-17T04:11:13.816Z,17.28
2018-09-17T04:12:23.902Z,17.18
2018-09-17T04:13:33.715Z,17.25
2018-09-17T04:14:43.791Z,17.31
2018-09-17T04:15:53.941Z,17.35
2018-09-17T04:17:03.760Z,17.35
2018-09-17T04:18:13.736Z,17.36
2018-09-17T04:19:23.800Z,17.39
2018-09-17T04:20:33.865Z,17.38
2018-09-17T04:21:44.000Z,17.36
2018-09-17T04:22:54.077Z,17.31
2018-09-17T04:24:04.165Z,17.39
2018-09-17T04:25:14.245Z,17.45
2018-09-17T04:26:24.068Z,17.4
2018-09-17T04:27:34.173Z,17.4
2018-09-17T04:28:44.268Z,17.4
2018-09-17T04:29:54.348Z,17.45
2018-09-17T04:31:05.428Z,17.46
2018-09-17T04:32:15.569Z,17.45
2018-09-17T04:33:25.366Z,17.52
2018-09-17T04:34:34.913Z,17.47
2018-09-17T04:35:45.031Z,17.55
2018-09-17T04:36:55.101Z,17.55
2018-09-17T04:38:04.963Z,17.5
2018-09-17T04:39:15.152Z,17.58
2018-09-17T04:40:25.237Z,17.65
2018-09-17T04:41:35.040Z,17.68
2018-09-17T04:42:45.166Z,17.71
2018-09-17T04:43:55.234Z,17.65
2018-09-17T04:45:05.301Z,17.69
2018-09-17T04:46:15.379Z,17.69
2018-09-17T04:47:25.199Z,17.73
2018-09-17T04:48:35.255Z,17.74
2018-09-17T04:49:45.061Z,17.87
2018-09-17T04:50:55.141Z,17.88
2018-09-17T04:52:05.772Z,18.03
2018-09-17T04:53:15.860Z,18.08
2018-09-17T04:54:25.667Z,18.16
2018-09-17T04:55:35.756Z,18.2
2018-09-17T04:56:45.852Z,18.2
2018-09-17T04:57:55.910Z,18.16
2018-09-17T04:59:07.739Z,18.26
2018-09-17T05:00:17.580Z,18.19
2018-09-17T05:01:27.668Z,18.31
2018-09-17T05:02:37.480Z,18.26
2018-09-17T05:03:47.546Z,18.34
2018-09-17T05:04:57.352Z,18.39
2018-09-17T05:06:07.204Z,18.39
2018-09-17T05:07:17.474Z,18.47
2018-09-17T05:08:27.785Z,18.59
2018-09-17T05:09:37.955Z,18.57
2018-09-17T05:10:48.025Z,18.61
2018-09-17T05:11:58.125Z,18.71
2018-09-17T05:13:08.592Z,18.75
2018-09-17T05:14:19.030Z,18.75
2018-09-17T05:15:29.095Z,18.86
2018-09-17T05:16:39.171Z,18.96
2018-09-17T05:17:48.988Z,18.94
2018-09-17T05:18:59.049Z,18.99
2018-09-17T05:20:09.140Z,19.02
2018-09-17T05:21:19.211Z,19.06
2018-09-17T05:22:29.023Z,19.12
2018-09-17T05:23:39.096Z,19.12
2018-09-17T05:24:49.179Z,19.27
2018-09-17T05:25:59.264Z,19.38
2018-09-17T05:27:10.364Z,19.47
2018-09-17T05:28:20.448Z,19.55
2018-09-17T05:29:30.519Z,19.65
2018-09-17T05:30:40.594Z,19.63
2018-09-17T05:31:50.737Z,19.63
2018-09-17T05:33:01.331Z,19.64
2018-09-17T05:34:11.499Z,19.74
2018-09-17T05:35:21.577Z,19.7
2018-09-17T05:36:31.410Z,19.75
2018-09-17T05:37:41.615Z,19.72
2018-09-17T05:38:51.698Z,19.8
2018-09-17T05:40:03.096Z,19.64
2018-09-17T05:41:13.178Z,19.65
2018-09-17T05:42:22.988Z,19.74
2018-09-17T05:43:32.799Z,19.78
2018-09-17T05:44:42.874Z,19.79
2018-09-17T05:45:52.964Z,19.78
2018-09-17T05:47:03.030Z,19.8
2018-09-17T05:48:13.218Z,19.74
2018-09-17T05:49:23.292Z,19.74
2018-09-17T05:50:32.842Z,19.83
2018-09-17T05:51:42.925Z,19.85
2018-09-17T05:52:52.757Z,19.92
2018-09-17T05:54:02.961Z,19.89
2018-09-17T05:55:12.523Z,19.86
2018-09-17T05:56:22.704Z,19.8
2018-09-17T05:57:32.526Z,19.93
2018-09-17T05:58:42.618Z,19.93
2018-09-17T05:59:52.715Z,20.01
2018-09-17T06:01:02.805Z,20.02
2018-09-17T06:02:12.607Z,20.07
2018-09-17T06:03:22.688Z,20.1
2018-09-17T06:04:32.838Z,20.11
2018-09-17T06:05:43.234Z,20.1
2018-09-17T06:06:53.194Z,20.04
2018-09-17T06:08:05.474Z,20.04
2018-09-17T06:09:15.564Z,20.04
2018-09-17T06:10:25.394Z,20.18
2018-09-17T06:11:35.217Z,20.22
2018-09-17T06:12:45.393Z,20.38
2018-09-17T06:13:55.513Z,20.44
2018-09-17T06:15:06.129Z,20.54
2018-09-17T06:16:16.263Z,20.66
2018-09-17T06:17:26.621Z,20.75
2018-09-17T06:18:37.063Z,20.86
2018-09-17T06:19:47.145Z,20.93
2018-09-17T06:20:57.223Z,21.06
2018-09-17T06:22:07.319Z,21.16
2018-09-17T06:23:17.475Z,21.27
2018-09-17T06:24:27.775Z,21.36
2018-09-17T06:25:37.864Z,21.4
2018-09-17T06:26:48.100Z,21.53
2018-09-17T06:27:57.968Z,21.53
2018-09-17T06:29:08.245Z,21.59
2018-09-17T06:30:18.311Z,21.55
2018-09-17T06:31:27.862Z,21.56
2018-09-17T06:32:37.965Z,21.68
2018-09-17T06:33:48.064Z,21.64
2018-09-17T06:34:58.133Z,21.8
2018-09-17T06:36:10.565Z,21.8
2018-09-17T06:37:20.863Z,21.9
2018-09-17T06:38:30.694Z,21.89
2018-09-17T06:39:40.776Z,21.86
2018-09-17T06:40:50.843Z,21.92
2018-09-17T06:42:02.213Z,21.92
2018-09-17T06:43:12.038Z,21.97
2018-09-17T06:44:22.111Z,21.83
2018-09-17T06:45:32.180Z,21.86
2018-09-17T06:46:42.004Z,21.82
2018-09-17T06:47:52.084Z,21.78
2018-09-17T06:49:02.167Z,21.83
2018-09-17T06:50:12.233Z,21.89
2018-09-17T06:51:22.258Z,21.9
2018-09-17T06:52:32.476Z,21.89
2018-09-17T06:53:42.577Z,21.9
2018-09-17T06:54:52.814Z,21.83
2018-09-17T06:56:03.542Z,21.78
2018-09-17T06:57:13.446Z,21.8
2018-09-17T06:58:23.245Z,21.86
2018-09-17T06:59:33.054Z,21.86
2018-09-17T07:00:43.129Z,21.85
2018-09-17T07:01:53.239Z,21.86
2018-09-17T07:03:03.148Z,21.89
2018-09-17T07:04:13.224Z,22
2018-09-17T07:05:23.303Z,21.96
2018-09-17T07:06:33.358Z,22.04
2018-09-17T07:07:43.464Z,22.12
2018-09-17T07:08:53.607Z,22.2
2018-09-17T07:10:05.980Z,22.23
2018-09-17T07:11:15.793Z,22.18
2018-09-17T07:12:25.607Z,22.24
2018-09-17T07:13:35.425Z,22.16
2018-09-17T07:14:45.593Z,22.16
2018-09-17T07:15:55.671Z,22.31
2018-09-17T07:17:05.638Z,22.31
2018-09-17T07:18:15.867Z,22.24
2018-09-17T07:19:25.952Z,22.24
2018-09-17T07:20:36.022Z,22.27
2018-09-17T07:21:45.832Z,22.31
2018-09-17T07:22:55.940Z,22.42
2018-09-17T07:24:06.014Z,22.54
2018-09-17T07:25:16.232Z,22.66
2018-09-17T07:26:26.194Z,22.73
2018-09-17T07:27:36.280Z,22.79
2018-09-17T07:28:46.357Z,22.91
2018-09-17T07:29:56.423Z,22.99
2018-09-17T07:31:06.496Z,23.12
2018-09-17T07:32:16.575Z,23.16
2018-09-17T07:33:26.627Z,23.28
2018-09-17T07:34:36.712Z,23.24
2018-09-17T07:35:46.831Z,23.37
2018-09-17T07:36:56.917Z,23.48
2018-09-17T07:38:07.000Z,23.55
2018-09-17T07:39:17.114Z,23.56
2018-09-17T07:40:27.211Z,23.62
2018-09-17T07:41:37.017Z,23.67
2018-09-17T07:42:47.174Z,23.67
2018-09-17T07:43:57.394Z,23.79
2018-09-17T07:45:07.516Z,23.78
2018-09-17T07:46:17.587Z,23.78
2018-09-17T07:47:27.669Z,23.82
2018-09-17T07:48:37.759Z,23.92
2018-09-17T07:49:47.469Z,23.9
2018-09-17T07:50:57.269Z,23.93
2018-09-17T07:52:07.106Z,24.03
2018-09-17T07:53:17.414Z,24.04
2018-09-17T07:54:27.305Z,24.08
2018-09-17T07:55:37.373Z,24
2018-09-17T07:56:47.192Z,24.03
2018-09-17T07:57:57.293Z,24.14
2018-09-17T07:59:08.692Z,24.17
2018-09-17T08:00:18.767Z,24.15
2018-09-17T08:01:28.975Z,24.15
2018-09-17T08:02:39.058Z,24.19
2018-09-17T08:03:49.128Z,24.09
2018-09-17T08:04:58.945Z,24.19
2018-09-17T08:06:09.028Z,24.09
2018-09-17T08:07:19.084Z,24.21
2018-09-17T08:08:28.634Z,24.15
2018-09-17T08:09:38.488Z,24.29
2018-09-17T08:10:48.569Z,24.34
2018-09-17T08:11:58.652Z,24.32
2018-09-17T08:13:08.828Z,24.44
2018-09-17T08:14:18.900Z,24.46
2018-09-17T08:15:28.982Z,24.4
2018-09-17T08:16:38.800Z,24.49
2018-09-17T08:17:48.353Z,24.54
2018-09-17T08:18:58.491Z,24.51
2018-09-17T08:20:08.314Z,24.44
2018-09-17T08:21:18.142Z,24.52
2018-09-17T08:22:28.234Z,24.58
2018-09-17T08:23:38.098Z,24.55
2018-09-17T08:24:48.243Z,24.64
2018-09-17T08:25:58.323Z,24.77
2018-09-17T08:27:09.278Z,24.66
2018-09-17T08:28:19.109Z,24.78
2018-09-17T08:29:29.192Z,24.77
2018-09-17T08:30:39.108Z,24.78
2018-09-17T08:31:48.934Z,24.85
2018-09-17T08:32:59.018Z,24.83
2018-09-17T08:34:09.119Z,24.85
2018-09-17T08:35:18.666Z,24.86
2018-09-17T08:36:28.570Z,24.9
2018-09-17T08:37:38.661Z,25.01
2018-09-17T08:38:47.958Z,25.04
2018-09-17T08:39:58.011Z,25.11
2018-09-17T08:41:07.571Z,25.11
2018-09-17T08:42:17.110Z,25.2
2018-09-17T08:43:26.943Z,25.15
2018-09-17T08:44:36.751Z,25.24
2018-09-17T08:45:47.005Z,25.3
2018-09-17T08:46:57.132Z,25.3
2018-09-17T08:48:06.975Z,25.3
2018-09-17T08:49:17.044Z,25.39
2018-09-17T08:50:26.848Z,25.42
2018-09-17T08:51:36.925Z,25.44
2018-09-17T08:52:46.854Z,25.48
2018-09-17T08:53:56.847Z,25.52
2018-09-17T08:55:06.706Z,25.56
2018-09-17T08:56:16.547Z,25.64
2018-09-17T08:57:26.608Z,25.56
2018-09-17T08:58:36.516Z,25.63
2018-09-17T08:59:46.605Z,25.75
2018-09-17T09:00:56.704Z,25.78
2018-09-17T09:02:06.831Z,25.7
2018-09-17T09:03:16.906Z,25.81
2018-09-17T09:04:26.743Z,25.76
2018-09-17T09:05:36.655Z,25.84
2018-09-17T09:06:46.815Z,25.89
2018-09-17T09:07:56.878Z,25.93
2018-09-17T09:09:08.165Z,25.97
2018-09-17T09:10:18.238Z,26.04
2018-09-17T09:11:28.317Z,26.16
2018-09-17T09:12:38.237Z,26.22
2018-09-17T09:13:48.292Z,26.22
2018-09-17T09:14:58.149Z,26.27
2018-09-17T09:16:08.231Z,26.27
2018-09-17T09:17:18.067Z,26.37
2018-09-17T09:18:28.227Z,26.31
2018-09-17T09:19:38.534Z,26.42
2018-09-17T09:20:49.041Z,26.42
2018-09-17T09:21:59.118Z,26.56
2018-09-17T09:23:08.949Z,26.63
2018-09-17T09:24:19.029Z,26.64
2018-09-17T09:25:29.115Z,26.63
2018-09-17T09:26:39.210Z,26.75
2018-09-17T09:27:49.043Z,26.71
2018-09-17T09:28:59.140Z,26.81
2018-09-17T09:30:10.718Z,26.78
2018-09-17T09:31:20.807Z,26.86
2018-09-17T09:32:30.935Z,26.81
2018-09-17T09:33:41.014Z,26.96
2018-09-17T09:34:51.339Z,26.91
2018-09-17T09:36:01.426Z,26.91
2018-09-17T09:37:11.508Z,26.96
2018-09-17T09:38:21.665Z,27.05
2018-09-17T09:39:31.492Z,27.06
2018-09-17T09:40:41.609Z,27.08
2018-09-17T09:41:51.695Z,27.11
2018-09-17T09:43:01.799Z,27.12
2018-09-17T09:44:11.619Z,27.11
2018-09-17T09:45:21.679Z,27.13
2018-09-17T09:46:31.760Z,27.24
2018-09-17T09:47:41.858Z,27.27
2018-09-17T09:48:51.745Z,27.38
2018-09-17T09:50:01.626Z,27.37
2018-09-17T09:51:11.457Z,27.42
2018-09-17T09:52:21.553Z,27.51
2018-09-17T09:53:31.647Z,27.57
2018-09-17T09:54:41.215Z,27.55
2018-09-17T09:55:51.040Z,27.66
2018-09-17T09:57:01.092Z,27.8
2018-09-17T09:58:11.181Z,27.87
2018-09-17T09:59:21.264Z,27.91
2018-09-17T10:00:31.361Z,27.98
2018-09-17T10:01:41.516Z,27.86
2018-09-17T10:02:51.610Z,28.03
2018-09-17T10:04:01.687Z,28.01
2018-09-17T10:05:11.914Z,28.03
2018-09-17T10:06:21.740Z,28.03
2018-09-17T10:07:31.805Z,27.99
2018-09-17T10:08:41.879Z,28.01
2018-09-17T10:09:51.970Z,27.93
2018-09-17T10:11:02.045Z,27.89
2018-09-17T10:12:11.869Z,27.87
2018-09-17T10:13:21.964Z,27.87
2018-09-17T10:14:32.063Z,27.8
2018-09-17T10:15:42.154Z,27.79
2018-09-17T10:16:52.259Z,27.76
2018-09-17T10:18:02.439Z,27.86
2018-09-17T10:19:12.587Z,27.9
2018-09-17T10:20:22.803Z,27.84
2018-09-17T10:21:32.611Z,27.93
2018-09-17T10:22:42.747Z,28.03
2018-09-17T10:23:52.566Z,28.11
2018-09-17T10:25:03.232Z,28.11
2018-09-17T10:26:13.315Z,28.2
2018-09-17T10:27:23.507Z,28.17
2018-09-17T10:28:33.349Z,28.24
2018-09-17T10:29:43.163Z,28.28
2018-09-17T10:30:53.331Z,28.35
2018-09-17T10:32:03.175Z,28.42
2018-09-17T10:33:12.997Z,28.45
2018-09-17T10:34:23.135Z,28.49
2018-09-17T10:35:33.219Z,28.57
2018-09-17T10:36:43.295Z,28.61
2018-09-17T10:37:53.102Z,28.64
2018-09-17T10:39:03.181Z,28.82
2018-09-17T10:40:13.809Z,28.82
2018-09-17T10:41:23.914Z,28.9
2018-09-17T10:42:34.000Z,28.85
2018-09-17T10:43:43.801Z,28.82
2018-09-17T10:44:53.352Z,28.76
2018-09-17T10:46:03.177Z,28.85
2018-09-17T10:47:13.301Z,28.83
2018-09-17T10:48:23.173Z,28.85
2018-09-17T10:49:33.014Z,28.82
2018-09-17T10:50:42.871Z,28.83
2018-09-17T10:51:53.150Z,29.01
2018-09-17T10:53:03.223Z,28.95
2018-09-17T10:54:13.314Z,28.94
2018-09-17T10:55:23.533Z,28.97
2018-09-17T10:56:33.344Z,29.03
2018-09-17T10:57:42.954Z,28.98
2018-09-17T10:58:53.063Z,29.1
2018-09-17T11:00:02.884Z,29.1
2018-09-17T11:01:12.986Z,29.1
2018-09-17T11:02:23.073Z,29.17
2018-09-17T11:03:33.253Z,29.15
2018-09-17T11:04:43.342Z,29.21
2018-09-17T11:05:53.419Z,29.23
2018-09-17T11:07:03.511Z,29.29
2018-09-17T11:08:13.667Z,29.28
2018-09-17T11:09:23.956Z,29.32
2018-09-17T11:10:34.037Z,29.43
2018-09-17T11:11:43.876Z,29.43
2018-09-17T11:12:53.983Z,29.48
2018-09-17T11:14:04.087Z,29.33
2018-09-17T11:15:13.959Z,29.45
2018-09-17T11:16:23.794Z,29.43
2018-09-17T11:17:34.028Z,29.43
2018-09-17T11:18:44.197Z,29.42
2018-09-17T11:19:54.095Z,29.52
2018-09-17T11:21:04.228Z,29.54
2018-09-17T11:22:14.313Z,29.69
2018-09-17T11:23:24.172Z,29.63
2018-09-17T11:24:34.583Z,29.66
2018-09-17T11:25:44.663Z,29.76
2018-09-17T11:26:54.825Z,29.77
2018-09-17T11:28:04.932Z,29.84
2018-09-17T11:29:15.086Z,29.91
2018-09-17T11:30:25.176Z,30.02
2018-09-17T11:31:35.289Z,29.95
2018-09-17T11:32:45.389Z,29.97
2018-09-17T11:33:55.472Z,29.91
2018-09-17T11:35:06.457Z,30.03
2018-09-17T11:36:16.365Z,30.04
2018-09-17T11:37:26.281Z,30.03
2018-09-17T11:38:36.388Z,30.06
2018-09-17T11:39:46.217Z,30.1
2018-09-17T11:40:56.305Z,30.07
2018-09-17T11:42:06.124Z,30.14
2018-09-17T11:43:16.246Z,30.14
2018-09-17T11:44:26.466Z,30.06
2018-09-17T11:45:36.563Z,30.16
2018-09-17T11:46:46.804Z,30.04
2018-09-17T11:47:56.618Z,30.13
2018-09-17T11:49:08.206Z,30.16
2018-09-17T11:50:17.805Z,30.24
2018-09-17T11:51:27.627Z,30.26
2018-09-17T11:52:37.702Z,30.21
2018-09-17T11:53:47.311Z,30.25
2018-09-17T11:54:57.511Z,30.25
2018-09-17T11:56:07.673Z,30.29
2018-09-17T11:57:17.515Z,30.32
2018-09-17T11:58:27.597Z,30.34
2018-09-17T11:59:37.705Z,30.35
2018-09-17T12:00:47.822Z,30.35
2018-09-17T12:01:58.201Z,30.32
2018-09-17T12:03:09.326Z,30.51
2018-09-17T12:04:19.431Z,30.51
2018-09-17T12:05:29.565Z,30.52
2018-09-17T12:06:39.661Z,30.59
2018-09-17T12:07:49.848Z,30.57
2018-09-17T12:08:59.983Z,30.48
2018-09-17T12:10:09.810Z,30.51
2018-09-17T12:11:19.953Z,30.57
2018-09-17T12:12:30.184Z,30.69
2018-09-17T12:13:39.790Z,30.7
2018-09-17T12:14:49.867Z,30.77
2018-09-17T12:15:59.960Z,30.73
2018-09-17T12:17:10.031Z,30.71
2018-09-17T12:18:20.185Z,30.67
2018-09-17T12:19:30.335Z,30.69
2018-09-17T12:20:40.420Z,30.71
2018-09-17T12:21:50.260Z,30.71
2018-09-17T12:23:01.291Z,30.63
2018-09-17T12:24:11.500Z,30.7
2018-09-17T12:25:21.583Z,30.75
2018-09-17T12:26:31.660Z,30.77
2018-09-17T12:27:41.744Z,30.81
2018-09-17T12:28:51.850Z,30.88
2018-09-17T12:30:01.941Z,30.91
2018-09-17T12:31:13.121Z,30.97
2018-09-17T12:32:22.690Z,30.96
2018-09-17T12:33:33.037Z,30.91
2018-09-17T12:34:43.393Z,30.84
2018-09-17T12:35:53.225Z,30.86
2018-09-17T12:37:03.754Z,30.78
2018-09-17T12:38:13.613Z,30.79
2018-09-17T12:39:23.700Z,30.84
2018-09-17T12:40:33.801Z,30.86
2018-09-17T12:41:43.889Z,30.93
2018-09-17T12:42:53.989Z,30.96
2018-09-17T12:44:04.073Z,30.85
2018-09-17T12:45:14.193Z,30.84
2018-09-17T12:46:24.399Z,30.94
2018-09-17T12:47:34.494Z,30.93
2018-09-17T12:48:44.578Z,30.97
2018-09-17T12:49:54.658Z,31.03
2018-09-17T12:51:04.556Z,31
2018-09-17T12:52:14.375Z,31.06
2018-09-17T12:53:24.719Z,31.08
2018-09-17T12:54:34.832Z,31.07
2018-09-17T12:55:44.719Z,30.93
2018-09-17T12:56:54.814Z,30.93
2018-09-17T12:58:04.948Z,30.91
2018-09-17T12:59:15.075Z,30.86
2018-09-17T13:00:25.144Z,30.88
2018-09-17T13:01:34.792Z,30.77
2018-09-17T13:02:44.916Z,30.79
2018-09-17T13:03:54.997Z,30.81
2018-09-17T13:05:04.896Z,30.79
2018-09-17T13:06:15.000Z,30.73
2018-09-17T13:07:25.092Z,30.77
2018-09-17T13:08:35.190Z,30.86
2018-09-17T13:09:45.272Z,30.84
2018-09-17T13:10:55.391Z,30.86
2018-09-17T13:12:06.056Z,30.93
2018-09-17T13:13:15.913Z,31
2018-09-17T13:14:25.995Z,30.97
2018-09-17T13:15:35.867Z,30.99
2018-09-17T13:16:45.425Z,30.99
2018-09-17T13:17:55.510Z,31.03
2018-09-17T13:19:05.473Z,31.08
2018-09-17T13:20:15.288Z,31.01
2018-09-17T13:21:25.371Z,30.94
2018-09-17T13:22:35.468Z,30.89
2018-09-17T13:23:45.581Z,30.88
2018-09-17T13:24:55.858Z,30.91
2018-09-17T13:26:07.447Z,30.89
2018-09-17T13:27:17.535Z,30.93
2018-09-17T13:28:27.631Z,30.89
2018-09-17T13:29:37.514Z,30.99
2018-09-17T13:30:47.638Z,30.99
2018-09-17T13:31:58.122Z,30.99
2018-09-17T13:33:09.385Z,31.12
2018-09-17T13:34:19.245Z,31.06
2018-09-17T13:35:29.408Z,31.06
2018-09-17T13:36:39.494Z,31.22
2018-09-17T13:37:49.307Z,31.21
2018-09-17T13:38:59.148Z,31.18
2018-09-17T13:40:09.642Z,31.12
2018-09-17T13:41:19.462Z,31.1
2018-09-17T13:42:29.605Z,31.13
2018-09-17T13:43:39.590Z,31.21
2018-09-17T13:44:49.808Z,31.19
2018-09-17T13:45:59.701Z,31.08
2018-09-17T13:47:09.833Z,31.16
2018-09-17T13:48:19.682Z,31.18
2018-09-17T13:49:29.860Z,31.1
2018-09-17T13:50:40.079Z,31.01
2018-09-17T13:51:50.191Z,30.99
2018-09-17T13:53:00.438Z,31.08
2018-09-17T13:54:10.080Z,31.06
2018-09-17T13:55:20.227Z,31.12
2018-09-17T13:56:30.315Z,31.1
2018-09-17T13:57:39.897Z,31.04
2018-09-17T13:58:50.110Z,31.01
2018-09-17T14:00:00.405Z,31.04
2018-09-17T14:01:10.590Z,30.97
2018-09-17T14:02:20.716Z,31
2018-09-17T14:03:31.026Z,30.94
2018-09-17T14:04:41.264Z,30.86
2018-09-17T14:05:51.367Z,30.86
2018-09-17T14:07:01.491Z,30.86
2018-09-17T14:08:11.660Z,30.96
2018-09-17T14:09:21.812Z,30.88
2018-09-17T14:10:31.988Z,30.91
2018-09-17T14:11:42.152Z,30.93
2018-09-17T14:12:52.303Z,30.89
2018-09-17T14:14:02.135Z,30.96
2018-09-17T14:15:11.985Z,30.93
2018-09-17T14:16:22.124Z,30.88
2018-09-17T14:17:32.264Z,30.93
2018-09-17T14:18:42.110Z,30.99
2018-09-17T14:19:52.226Z,30.96
2018-09-17T14:21:02.065Z,30.97
2018-09-17T14:22:11.963Z,30.91
2018-09-17T14:23:21.895Z,30.94
2018-09-17T14:24:32.009Z,30.96
2018-09-17T14:25:41.890Z,30.91
2018-09-17T14:26:51.697Z,30.91
2018-09-17T14:28:01.987Z,30.89
2018-09-17T14:29:12.144Z,30.85
2018-09-17T14:30:22.004Z,30.85
2018-09-17T14:31:31.826Z,30.81
2018-09-17T14:32:42.092Z,30.73
2018-09-17T14:33:52.428Z,30.75
2018-09-17T14:35:01.986Z,30.69
2018-09-17T14:36:12.113Z,30.79
2018-09-17T14:37:21.949Z,30.69
2018-09-17T14:38:32.099Z,30.73
2018-09-17T14:39:42.384Z,30.69
2018-09-17T14:40:52.722Z,30.57
2018-09-17T14:42:02.660Z,30.67
2018-09-17T14:43:12.162Z,30.57
2018-09-17T14:44:22.269Z,30.62
2018-09-17T14:45:31.943Z,30.57
2018-09-17T14:46:41.794Z,30.49
2018-09-17T14:47:51.950Z,30.49
2018-09-17T14:49:03.667Z,30.48
2018-09-17T14:50:13.552Z,30.45
2018-09-17T14:51:23.961Z,30.44
2018-09-17T14:52:34.327Z,30.29
2018-09-17T14:53:44.152Z,30.26
2018-09-17T14:54:54.056Z,30.22
2018-09-17T14:56:04.167Z,30.13
2018-09-17T14:57:14.318Z,30.21
2018-09-17T14:58:24.712Z,30.09
2018-09-17T14:59:34.395Z,30.07
2018-09-17T15:00:44.583Z,30
2018-09-17T15:01:54.740Z,29.95
2018-09-17T15:03:04.859Z,29.95
2018-09-17T15:04:15.108Z,29.95
2018-09-17T15:05:25.850Z,29.92
2018-09-17T15:06:36.112Z,30
2018-09-17T15:07:46.526Z,29.89
2018-09-17T15:08:57.100Z,29.87
2018-09-17T15:10:08.256Z,29.92
2018-09-17T15:11:18.604Z,29.89
2018-09-17T15:12:28.728Z,29.89
2018-09-17T15:13:38.746Z,29.77
2018-09-17T15:14:49.075Z,29.73
2018-09-17T15:15:59.235Z,29.76
2018-09-17T15:17:09.269Z,29.75
2018-09-17T15:18:19.436Z,29.79
2018-09-17T15:19:29.612Z,29.67
2018-09-17T15:20:39.775Z,29.75
2018-09-17T15:21:49.852Z,29.69
2018-09-17T15:22:59.718Z,29.63
2018-09-17T15:24:09.999Z,29.66
2018-09-17T15:25:19.974Z,29.58
2018-09-17T15:26:30.206Z,29.6
2018-09-17T15:27:40.597Z,29.54
2018-09-17T15:28:50.758Z,29.54
2018-09-17T15:30:00.624Z,29.52
2018-09-17T15:31:11.162Z,29.55
2018-09-17T15:32:22.194Z,29.45
2018-09-17T15:33:32.813Z,29.42
2018-09-17T15:34:42.402Z,29.5
2018-09-17T15:35:52.494Z,29.51
2018-09-17T15:37:02.764Z,29.42